sensor_id;sensor_type;location;lat;lon;timestamp;pressure;altitude;pressure_sealevel;temperature;humidity
54920;BME280;63804;53.120;8.764;2022-12-24T00:00:15;100386.94;;;8.08;54.36
54920;BME280;63804;53.120;8.764;2022-12-24T00:02:40;100388.63;;;8.13;54.47
54920;BME280;63804;53.120;8.764;2022-12-24T00:05:07;100399.44;;;8.22;54.21
54920;BME280;63804;53.120;8.764;2022-12-24T00:07:33;100394.22;;;8.16;54.09
54920;BME280;63804;53.120;8.764;2022-12-24T00:09:58;100391.72;;;8.11;54.21
54920;BME280;63804;53.120;8.764;2022-12-24T00:12:24;100387.84;;;8.12;54.45
54920;BME280;63804;53.120;8.764;2022-12-24T00:14:50;100387.41;;;8.10;54.29
54920;BME280;63804;53.120;8.764;2022-12-24T00:17:15;100379.59;;;7.88;54.99
54920;BME280;63804;53.120;8.764;2022-12-24T00:19:41;100382.72;;;7.98;54.95
54920;BME280;63804;53.120;8.764;2022-12-24T00:22:07;100376.53;;;8.10;54.55
54920;BME280;63804;53.120;8.764;2022-12-24T00:24:33;100377.19;;;8.07;54.50
54920;BME280;63804;53.120;8.764;2022-12-24T00:26:58;100378.72;;;7.96;54.55
54920;BME280;63804;53.120;8.764;2022-12-24T00:29:24;100386.72;;;8.13;54.54
54920;BME280;63804;53.120;8.764;2022-12-24T00:31:50;100401.69;;;8.20;54.43
54920;BME280;63804;53.120;8.764;2022-12-24T00:34:15;100393.19;;;8.21;54.27
54920;BME280;63804;53.120;8.764;2022-12-24T00:36:41;100391.22;;;8.09;54.16
54920;BME280;63804;53.120;8.764;2022-12-24T00:39:07;100391.31;;;8.01;54.35
54920;BME280;63804;53.120;8.764;2022-12-24T00:41:32;100390.25;;;7.93;54.83
54920;BME280;63804;53.120;8.764;2022-12-24T00:43:59;100389.72;;;8.00;54.64
54920;BME280;63804;53.120;8.764;2022-12-24T00:46:26;100391.06;;;7.93;54.75
54920;BME280;63804;53.120;8.764;2022-12-24T00:48:52;100397.16;;;8.11;54.51
54920;BME280;63804;53.120;8.764;2022-12-24T00:51:18;100395.97;;;8.00;54.40
54920;BME280;63804;53.120;8.764;2022-12-24T00:53:44;100404.13;;;8.00;54.39
54920;BME280;63804;53.120;8.764;2022-12-24T00:56:10;100408.41;;;8.01;54.58
54920;BME280;63804;53.120;8.764;2022-12-24T00:58:35;100412.28;;;8.00;54.68
54920;BME280;63804;53.120;8.764;2022-12-24T01:01:01;100422.69;;;7.77;54.95
54920;BME280;63804;53.120;8.764;2022-12-24T01:03:27;100409.22;;;7.81;54.95
54920;BME280;63804;53.120;8.764;2022-12-24T01:06:07;100419.19;;;7.76;54.97
54920;BME280;63804;53.120;8.764;2022-12-24T01:08:33;100424.34;;;7.90;54.93
54920;BME280;63804;53.120;8.764;2022-12-24T01:10:59;100425.91;;;8.12;54.52
54920;BME280;63804;53.120;8.764;2022-12-24T01:13:25;100433.72;;;8.14;54.10
54920;BME280;63804;53.120;8.764;2022-12-24T01:15:51;100426.97;;;8.20;54.15
54920;BME280;63804;53.120;8.764;2022-12-24T01:18:16;100430.81;;;8.19;54.16
54920;BME280;63804;53.120;8.764;2022-12-24T01:20:42;100434.84;;;8.13;54.01
54920;BME280;63804;53.120;8.764;2022-12-24T01:23:08;100440.13;;;7.97;54.66
54920;BME280;63804;53.120;8.764;2022-12-24T01:25:33;100448.81;;;8.11;54.60
54920;BME280;63804;53.120;8.764;2022-12-24T01:27:59;100452.00;;;8.26;54.09
54920;BME280;63804;53.120;8.764;2022-12-24T01:30:25;100458.72;;;8.28;53.90
54920;BME280;63804;53.120;8.764;2022-12-24T01:32:50;100461.31;;;8.25;53.92
54920;BME280;63804;53.120;8.764;2022-12-24T01:35:16;100460.38;;;8.21;54.30
54920;BME280;63804;53.120;8.764;2022-12-24T01:37:42;100454.94;;;8.00;54.46
54920;BME280;63804;53.120;8.764;2022-12-24T01:40:09;100459.81;;;8.15;54.67
54920;BME280;63804;53.120;8.764;2022-12-24T01:42:53;100461.13;;;8.30;54.15
54920;BME280;63804;53.120;8.764;2022-12-24T01:48:03;100469.16;;;8.05;54.40
54920;BME280;63804;53.120;8.764;2022-12-24T01:50:29;100464.41;;;8.14;54.55
54920;BME280;63804;53.120;8.764;2022-12-24T01:52:55;100463.69;;;8.26;53.96
54920;BME280;63804;53.120;8.764;2022-12-24T01:55:21;100461.31;;;8.25;54.09
54920;BME280;63804;53.120;8.764;2022-12-24T01:57:49;100457.66;;;8.21;54.34
54920;BME280;63804;53.120;8.764;2022-12-24T02:00:17;100457.78;;;8.24;53.96
54920;BME280;63804;53.120;8.764;2022-12-24T02:02:43;100464.22;;;8.20;54.18
54920;BME280;63804;53.120;8.764;2022-12-24T02:05:14;100466.69;;;8.12;54.56
54920;BME280;63804;53.120;8.764;2022-12-24T02:07:41;100465.50;;;8.01;54.55
54920;BME280;63804;53.120;8.764;2022-12-24T02:10:08;100464.81;;;8.04;54.44
54920;BME280;63804;53.120;8.764;2022-12-24T02:12:34;100460.78;;;8.10;54.29
54920;BME280;63804;53.120;8.764;2022-12-24T02:15:02;100462.31;;;8.20;54.31
54920;BME280;63804;53.120;8.764;2022-12-24T02:23:01;100466.69;;;8.12;54.51
54920;BME280;63804;53.120;8.764;2022-12-24T02:30:41;100480.81;;;8.27;53.85
54920;BME280;63804;53.120;8.764;2022-12-24T02:38:07;100491.34;;;8.28;54.03
54920;BME280;63804;53.120;8.764;2022-12-24T02:40:37;100487.69;;;8.24;54.03
54920;BME280;63804;53.120;8.764;2022-12-24T02:43:17;100502.44;;;8.23;54.03
54920;BME280;63804;53.120;8.764;2022-12-24T02:45:47;100495.53;;;8.26;54.26
54920;BME280;63804;53.120;8.764;2022-12-24T02:48:14;100497.91;;;8.06;54.40
54920;BME280;63804;53.120;8.764;2022-12-24T02:50:53;100504.16;;;8.07;54.86
54920;BME280;63804;53.120;8.764;2022-12-24T02:53:18;100498.38;;;8.08;54.36
54920;BME280;63804;53.120;8.764;2022-12-24T03:11:27;100518.00;;;8.14;54.67
54920;BME280;63804;53.120;8.764;2022-12-24T03:13:53;100520.53;;;8.19;54.52
54920;BME280;63804;53.120;8.764;2022-12-24T03:16:23;100521.44;;;8.02;54.51
54920;BME280;63804;53.120;8.764;2022-12-24T03:18:49;100534.78;;;7.95;55.29
54920;BME280;63804;53.120;8.764;2022-12-24T03:21:32;100538.00;;;7.88;55.41
54920;BME280;63804;53.120;8.764;2022-12-24T03:24:05;100546.75;;;7.94;55.16
54920;BME280;63804;53.120;8.764;2022-12-24T03:26:31;100536.97;;;8.02;54.90
54920;BME280;63804;53.120;8.764;2022-12-24T03:28:57;100538.28;;;7.95;55.05
54920;BME280;63804;53.120;8.764;2022-12-24T03:31:23;100543.13;;;7.90;55.50
54920;BME280;63804;53.120;8.764;2022-12-24T03:33:49;100541.88;;;8.08;55.12
54920;BME280;63804;53.120;8.764;2022-12-24T03:36:14;100535.31;;;8.09;54.75
54920;BME280;63804;53.120;8.764;2022-12-24T03:38:41;100531.88;;;8.00;54.83
54920;BME280;63804;53.120;8.764;2022-12-24T03:41:06;100539.56;;;7.98;54.96
54920;BME280;63804;53.120;8.764;2022-12-24T03:43:32;100547.78;;;8.10;54.65
54920;BME280;63804;53.120;8.764;2022-12-24T03:46:01;100563.66;;;8.00;54.98
54920;BME280;63804;53.120;8.764;2022-12-24T03:48:27;100569.25;;;8.03;54.88
54920;BME280;63804;53.120;8.764;2022-12-24T03:50:53;100557.25;;;8.04;55.07
54920;BME280;63804;53.120;8.764;2022-12-24T03:53:18;100556.00;;;8.02;55.14
54920;BME280;63804;53.120;8.764;2022-12-24T03:55:44;100551.63;;;8.09;54.83
54920;BME280;63804;53.120;8.764;2022-12-24T03:58:11;100552.47;;;8.01;54.86
54920;BME280;63804;53.120;8.764;2022-12-24T04:00:36;100552.28;;;8.06;54.88
54920;BME280;63804;53.120;8.764;2022-12-24T04:03:02;100549.75;;;8.01;55.01
54920;BME280;63804;53.120;8.764;2022-12-24T04:05:28;100563.25;;;8.19;54.54
54920;BME280;63804;53.120;8.764;2022-12-24T04:07:53;100562.28;;;7.93;55.13
54920;BME280;63804;53.120;8.764;2022-12-24T04:10:26;100559.31;;;8.07;55.29
54920;BME280;63804;53.120;8.764;2022-12-24T04:12:51;100565.00;;;8.14;54.83
54920;BME280;63804;53.120;8.764;2022-12-24T04:15:17;100574.13;;;8.19;54.95
54920;BME280;63804;53.120;8.764;2022-12-24T04:17:43;100570.59;;;8.18;54.38
54920;BME280;63804;53.120;8.764;2022-12-24T04:20:08;100571.97;;;8.03;55.04
54920;BME280;63804;53.120;8.764;2022-12-24T04:22:34;100572.25;;;8.10;54.81
54920;BME280;63804;53.120;8.764;2022-12-24T04:25:00;100579.13;;;8.08;55.21
54920;BME280;63804;53.120;8.764;2022-12-24T04:27:25;100574.44;;;8.17;54.77
54920;BME280;63804;53.120;8.764;2022-12-24T04:29:51;100588.63;;;8.23;54.79
54920;BME280;63804;53.120;8.764;2022-12-24T04:32:17;100585.25;;;8.26;54.79
54920;BME280;63804;53.120;8.764;2022-12-24T04:34:42;100589.06;;;8.33;54.82
54920;BME280;63804;53.120;8.764;2022-12-24T04:37:08;100594.88;;;8.23;54.57
54920;BME280;63804;53.120;8.764;2022-12-24T04:39:34;100598.84;;;8.05;55.46
54920;BME280;63804;53.120;8.764;2022-12-24T04:41:59;100599.88;;;8.12;55.56
54920;BME280;63804;53.120;8.764;2022-12-24T04:44:25;100603.38;;;8.22;55.28
54920;BME280;63804;53.120;8.764;2022-12-24T04:46:50;100606.81;;;8.31;54.77
54920;BME280;63804;53.120;8.764;2022-12-24T04:49:16;100611.78;;;8.29;54.81
54920;BME280;63804;53.120;8.764;2022-12-24T04:51:42;100610.50;;;8.35;54.70
54920;BME280;63804;53.120;8.764;2022-12-24T04:54:07;100616.59;;;8.02;55.35
54920;BME280;63804;53.120;8.764;2022-12-24T04:56:33;100618.06;;;7.91;55.85
54920;BME280;63804;53.120;8.764;2022-12-24T04:58:59;100622.41;;;7.92;55.98
54920;BME280;63804;53.120;8.764;2022-12-24T05:01:26;100614.47;;;8.08;55.92
54920;BME280;63804;53.120;8.764;2022-12-24T05:03:52;100616.97;;;8.22;55.43
54920;BME280;63804;53.120;8.764;2022-12-24T05:06:19;100607.63;;;8.31;55.13
54920;BME280;63804;53.120;8.764;2022-12-24T05:08:45;100609.72;;;8.26;55.13
54920;BME280;63804;53.120;8.764;2022-12-24T05:11:11;100612.91;;;8.28;55.03
54920;BME280;63804;53.120;8.764;2022-12-24T05:13:41;100613.09;;;8.23;55.35
54920;BME280;63804;53.120;8.764;2022-12-24T05:16:07;100617.41;;;8.24;55.32
54920;BME280;63804;53.120;8.764;2022-12-24T05:18:33;100628.94;;;8.21;55.63
54920;BME280;63804;53.120;8.764;2022-12-24T05:20:58;100619.78;;;8.34;55.49
54920;BME280;63804;53.120;8.764;2022-12-24T05:23:24;100627.88;;;8.43;55.37
54920;BME280;63804;53.120;8.764;2022-12-24T05:26:55;100616.94;;;8.51;55.18
54920;BME280;63804;53.120;8.764;2022-12-24T05:28:55;100620.25;;;8.57;55.39
54920;BME280;63804;53.120;8.764;2022-12-24T05:31:22;100622.78;;;8.62;55.04
54920;BME280;63804;53.120;8.764;2022-12-24T05:33:48;100632.53;;;8.63;55.19
54920;BME280;63804;53.120;8.764;2022-12-24T05:36:13;100628.88;;;8.59;55.23
54920;BME280;63804;53.120;8.764;2022-12-24T05:38:39;100632.53;;;8.63;55.47
54920;BME280;63804;53.120;8.764;2022-12-24T05:41:05;100629.94;;;8.67;55.16
54920;BME280;63804;53.120;8.764;2022-12-24T05:43:31;100628.97;;;8.71;55.27
54920;BME280;63804;53.120;8.764;2022-12-24T05:45:58;100641.28;;;8.69;55.51
54920;BME280;63804;53.120;8.764;2022-12-24T05:48:24;100643.81;;;8.74;55.34
54920;BME280;63804;53.120;8.764;2022-12-24T05:50:49;100647.31;;;8.75;55.23
54920;BME280;63804;53.120;8.764;2022-12-24T05:53:15;100659.16;;;8.79;55.59
54920;BME280;63804;53.120;8.764;2022-12-24T05:55:40;100662.44;;;8.84;55.31
54920;BME280;63804;53.120;8.764;2022-12-24T05:58:06;100659.47;;;8.77;55.44
54920;BME280;63804;53.120;8.764;2022-12-24T06:00:31;100670.81;;;8.79;55.63
54920;BME280;63804;53.120;8.764;2022-12-24T06:02:57;100664.47;;;8.75;55.74
54920;BME280;63804;53.120;8.764;2022-12-24T06:05:23;100662.88;;;8.74;55.92
54920;BME280;63804;53.120;8.764;2022-12-24T06:07:48;100660.06;;;8.83;55.64
54920;BME280;63804;53.120;8.764;2022-12-24T06:10:14;100661.59;;;8.93;55.52
54920;BME280;63804;53.120;8.764;2022-12-24T06:12:39;100674.41;;;8.92;55.69
54920;BME280;63804;53.120;8.764;2022-12-24T06:15:05;100674.22;;;8.97;55.80
54920;BME280;63804;53.120;8.764;2022-12-24T06:17:31;100673.88;;;8.99;55.98
54920;BME280;63804;53.120;8.764;2022-12-24T06:19:57;100670.00;;;9.00;56.09
54920;BME280;63804;53.120;8.764;2022-12-24T06:22:22;100671.84;;;9.08;56.08
54920;BME280;63804;53.120;8.764;2022-12-24T06:24:48;100678.03;;;9.17;55.97
54920;BME280;63804;53.120;8.764;2022-12-24T06:27:13;100680.31;;;9.15;55.85
54920;BME280;63804;53.120;8.764;2022-12-24T06:29:39;100683.03;;;9.15;56.16
54920;BME280;63804;53.120;8.764;2022-12-24T06:32:05;100682.69;;;9.17;56.22
54920;BME280;63804;53.120;8.764;2022-12-24T06:34:30;100697.88;;;9.18;56.24
54920;BME280;63804;53.120;8.764;2022-12-24T06:36:56;100700.53;;;9.26;56.40
54920;BME280;63804;53.120;8.764;2022-12-24T06:39:22;100699.19;;;9.33;56.21
54920;BME280;63804;53.120;8.764;2022-12-24T06:41:47;100694.63;;;9.24;56.67
54920;BME280;63804;53.120;8.764;2022-12-24T06:44:13;100709.06;;;9.25;56.48
54920;BME280;63804;53.120;8.764;2022-12-24T06:46:38;100704.66;;;9.33;56.78
54920;BME280;63804;53.120;8.764;2022-12-24T06:49:04;100705.44;;;9.33;56.55
54920;BME280;63804;53.120;8.764;2022-12-24T06:51:29;100709.09;;;9.37;56.56
54920;BME280;63804;53.120;8.764;2022-12-24T06:53:55;100720.19;;;9.32;56.54
54920;BME280;63804;53.120;8.764;2022-12-24T06:56:21;100709.44;;;9.36;56.55
54920;BME280;63804;53.120;8.764;2022-12-24T06:58:46;100714.75;;;9.32;56.69
54920;BME280;63804;53.120;8.764;2022-12-24T07:01:13;100724.16;;;9.35;56.60
54920;BME280;63804;53.120;8.764;2022-12-24T07:03:39;100730.56;;;9.39;56.49
54920;BME280;63804;53.120;8.764;2022-12-24T07:06:05;100734.66;;;9.45;56.44
54920;BME280;63804;53.120;8.764;2022-12-24T07:08:31;100750.75;;;9.38;56.29
54920;BME280;63804;53.120;8.764;2022-12-24T07:10:58;100753.38;;;9.46;56.38
54920;BME280;63804;53.120;8.764;2022-12-24T07:13:24;100762.81;;;9.49;56.28
54920;BME280;63804;53.120;8.764;2022-12-24T07:16:23;100765.75;;;9.44;56.09
54920;BME280;63804;53.120;8.764;2022-12-24T07:18:41;100776.00;;;9.47;56.24
54920;BME280;63804;53.120;8.764;2022-12-24T07:21:07;100783.50;;;9.50;55.84
54920;BME280;63804;53.120;8.764;2022-12-24T07:23:33;100776.66;;;9.44;56.03
54920;BME280;63804;53.120;8.764;2022-12-24T07:25:59;100785.41;;;9.50;56.23
54920;BME280;63804;53.120;8.764;2022-12-24T07:28:26;100785.63;;;9.44;56.19
54920;BME280;63804;53.120;8.764;2022-12-24T07:30:51;100791.69;;;9.50;56.08
54920;BME280;63804;53.120;8.764;2022-12-24T07:33:17;100787.00;;;9.51;55.83
54920;BME280;63804;53.120;8.764;2022-12-24T07:35:42;100788.63;;;9.52;55.97
54920;BME280;63804;53.120;8.764;2022-12-24T07:38:08;100791.13;;;9.57;55.56
54920;BME280;63804;53.120;8.764;2022-12-24T07:40:34;100794.00;;;9.60;55.71
54920;BME280;63804;53.120;8.764;2022-12-24T07:42:59;100795.78;;;9.56;55.67
54920;BME280;63804;53.120;8.764;2022-12-24T07:45:25;100799.78;;;9.59;55.51
54920;BME280;63804;53.120;8.764;2022-12-24T07:47:50;100803.81;;;9.53;55.71
54920;BME280;63804;53.120;8.764;2022-12-24T07:50:16;100799.66;;;9.55;55.72
54920;BME280;63804;53.120;8.764;2022-12-24T07:52:42;100802.19;;;9.60;55.38
54920;BME280;63804;53.120;8.764;2022-12-24T07:55:07;100818.38;;;9.57;55.32
54920;BME280;63804;53.120;8.764;2022-12-24T07:57:33;100815.72;;;9.48;55.60
54920;BME280;63804;53.120;8.764;2022-12-24T07:59:59;100828.34;;;9.53;55.55
54920;BME280;63804;53.120;8.764;2022-12-24T08:02:24;100827.22;;;9.54;55.56
54920;BME280;63804;53.120;8.764;2022-12-24T08:04:50;100834.59;;;9.53;55.68
54920;BME280;63804;53.120;8.764;2022-12-24T08:07:16;100833.41;;;9.63;55.31
54920;BME280;63804;53.120;8.764;2022-12-24T08:09:41;100833.00;;;9.52;55.42
54920;BME280;63804;53.120;8.764;2022-12-24T08:12:08;100842.75;;;9.53;55.39
54920;BME280;63804;53.120;8.764;2022-12-24T08:14:34;100845.47;;;9.53;55.24
54920;BME280;63804;53.120;8.764;2022-12-24T08:16:59;100854.94;;;9.56;55.64
54920;BME280;63804;53.120;8.764;2022-12-24T08:19:25;100862.00;;;9.57;55.40
54920;BME280;63804;53.120;8.764;2022-12-24T08:21:51;100859.41;;;9.60;55.57
54920;BME280;63804;53.120;8.764;2022-12-24T08:24:16;100859.09;;;9.62;55.47
54920;BME280;63804;53.120;8.764;2022-12-24T08:26:42;100861.16;;;9.65;55.39
54920;BME280;63804;53.120;8.764;2022-12-24T08:29:08;100869.16;;;9.61;55.38
54920;BME280;63804;53.120;8.764;2022-12-24T08:31:33;100878.94;;;9.62;55.42
54920;BME280;63804;53.120;8.764;2022-12-24T08:34:04;100874.91;;;9.69;55.37
54920;BME280;63804;53.120;8.764;2022-12-24T08:36:29;100881.28;;;9.73;55.34
54920;BME280;63804;53.120;8.764;2022-12-24T08:39:57;100885.41;;;9.79;55.48
54920;BME280;63804;53.120;8.764;2022-12-24T08:42:30;100897.63;;;9.73;55.50
54920;BME280;63804;53.120;8.764;2022-12-24T08:44:55;100906.66;;;9.64;55.68
54920;BME280;63804;53.120;8.764;2022-12-24T08:47:21;100901.59;;;9.54;55.55
54920;BME280;63804;53.120;8.764;2022-12-24T08:49:46;100903.19;;;9.55;55.89
54920;BME280;63804;53.120;8.764;2022-12-24T08:52:12;100906.38;;;9.57;55.76
54920;BME280;63804;53.120;8.764;2022-12-24T08:56:00;100911.38;;;9.55;55.41
54920;BME280;63804;53.120;8.764;2022-12-24T08:58:32;100913.84;;;9.69;55.02
54920;BME280;63804;53.120;8.764;2022-12-24T09:00:59;100921.50;;;9.76;54.80
54920;BME280;63804;53.120;8.764;2022-12-24T09:03:26;100926.50;;;9.74;55.16
54920;BME280;63804;53.120;8.764;2022-12-24T09:05:52;100933.31;;;9.80;55.01
54920;BME280;63804;53.120;8.764;2022-12-24T09:08:19;100934.72;;;9.86;55.08
54920;BME280;63804;53.120;8.764;2022-12-24T09:10:45;100934.72;;;9.86;54.92
54920;BME280;63804;53.120;8.764;2022-12-24T09:13:11;100937.66;;;9.81;55.15
54920;BME280;63804;53.120;8.764;2022-12-24T09:15:37;100937.78;;;9.85;55.02
54920;BME280;63804;53.120;8.764;2022-12-24T09:18:02;100940.31;;;9.90;55.01
54920;BME280;63804;53.120;8.764;2022-12-24T09:20:28;100943.63;;;9.74;55.48
54920;BME280;63804;53.120;8.764;2022-12-24T09:22:54;100953.53;;;9.79;55.78
54920;BME280;63804;53.120;8.764;2022-12-24T09:25:20;100947.22;;;9.87;55.59
54920;BME280;63804;53.120;8.764;2022-12-24T09:27:46;100955.88;;;9.89;55.51
54920;BME280;63804;53.120;8.764;2022-12-24T09:30:12;100962.25;;;9.93;55.48
54920;BME280;63804;53.120;8.764;2022-12-24T09:32:38;100965.03;;;10.06;54.93
54920;BME280;63804;53.120;8.764;2022-12-24T09:35:04;100965.03;;;10.06;55.21
54920;BME280;63804;53.120;8.764;2022-12-24T09:37:30;100980.09;;;10.12;54.87
54920;BME280;63804;53.120;8.764;2022-12-24T09:39:55;100982.53;;;10.05;55.22
54920;BME280;63804;53.120;8.764;2022-12-24T09:42:47;100985.72;;;10.07;55.15
54920;BME280;63804;53.120;8.764;2022-12-24T09:45:34;100994.50;;;10.12;55.30
54920;BME280;63804;53.120;8.764;2022-12-24T09:48:23;100990.16;;;10.32;54.75
54920;BME280;63804;53.120;8.764;2022-12-24T09:51:10;100988.53;;;10.52;54.31
54920;BME280;63804;53.120;8.764;2022-12-24T09:53:42;101005.28;;;10.63;54.25
54920;BME280;63804;53.120;8.764;2022-12-24T09:56:19;101010.59;;;10.81;53.67
54920;BME280;63804;53.120;8.764;2022-12-24T09:59:03;101017.19;;;10.80;53.72
54920;BME280;63804;53.120;8.764;2022-12-24T10:01:30;101011.47;;;10.72;53.83
54920;BME280;63804;53.120;8.764;2022-12-24T10:04:08;101004.84;;;10.73;53.88
54920;BME280;63804;53.120;8.764;2022-12-24T10:09:34;101008.41;;;10.41;54.36
54920;BME280;63804;53.120;8.764;2022-12-24T10:15:21;101018.03;;;10.38;54.63
54920;BME280;63804;53.120;8.764;2022-12-24T10:18:18;101028.47;;;10.57;54.35
54920;BME280;63804;53.120;8.764;2022-12-24T10:21:11;101020.50;;;10.52;54.22
54920;BME280;63804;53.120;8.764;2022-12-24T10:24:03;101022.50;;;10.43;54.45
54920;BME280;63804;53.120;8.764;2022-12-24T10:26:49;101021.44;;;10.35;54.42
54920;BME280;63804;53.120;8.764;2022-12-24T10:29:23;101028.69;;;10.31;54.69
54920;BME280;63804;53.120;8.764;2022-12-24T10:32:15;101029.28;;;10.36;54.32
54920;BME280;63804;53.120;8.764;2022-12-24T10:34:57;101028.41;;;10.45;54.22
54920;BME280;63804;53.120;8.764;2022-12-24T10:37:27;101040.19;;;10.36;54.66
54920;BME280;63804;53.120;8.764;2022-12-24T10:39:54;101040.47;;;10.44;54.38
54920;BME280;63804;53.120;8.764;2022-12-24T10:42:22;101044.56;;;10.50;54.13
54920;BME280;63804;53.120;8.764;2022-12-24T10:44:54;101033.00;;;10.53;54.14
54920;BME280;63804;53.120;8.764;2022-12-24T10:47:22;101037.66;;;10.52;54.09
54920;BME280;63804;53.120;8.764;2022-12-24T10:49:59;101051.44;;;10.56;54.20
54920;BME280;63804;53.120;8.764;2022-12-24T10:52:32;101052.16;;;10.65;53.88
54920;BME280;63804;53.120;8.764;2022-12-24T10:57:46;101055.44;;;10.59;54.13
54920;BME280;63804;53.120;8.764;2022-12-24T11:00:22;101052.09;;;10.53;53.97
54920;BME280;63804;53.120;8.764;2022-12-24T11:03:05;101058.84;;;10.55;53.93
54920;BME280;63804;53.120;8.764;2022-12-24T11:05:34;101049.78;;;10.64;53.97
54920;BME280;63804;53.120;8.764;2022-12-24T11:10:25;101042.34;;;10.52;54.00
54920;BME280;63804;53.120;8.764;2022-12-24T11:12:51;101054.03;;;10.52;53.97
54920;BME280;63804;53.120;8.764;2022-12-24T11:15:28;101052.09;;;10.53;54.00
54920;BME280;63804;53.120;8.764;2022-12-24T11:18:01;101056.91;;;10.56;54.05
54920;BME280;63804;53.120;8.764;2022-12-24T11:20:34;101060.16;;;10.70;53.75
54920;BME280;63804;53.120;8.764;2022-12-24T11:23:00;101067.94;;;10.81;53.25
54920;BME280;63804;53.120;8.764;2022-12-24T11:25:29;101069.47;;;10.90;53.10
54920;BME280;63804;53.120;8.764;2022-12-24T11:31:17;101058.66;;;10.94;53.29
54920;BME280;63804;53.120;8.764;2022-12-24T11:33:48;101053.22;;;11.06;52.95
54920;BME280;63804;53.120;8.764;2022-12-24T11:36:16;101054.56;;;11.00;53.29
54920;BME280;63804;53.120;8.764;2022-12-24T11:38:52;101044.78;;;10.99;53.02
54920;BME280;63804;53.120;8.764;2022-12-24T11:41:19;101048.09;;;11.05;53.11
54920;BME280;63804;53.120;8.764;2022-12-24T11:43:47;101047.50;;;10.99;53.37
54920;BME280;63804;53.120;8.764;2022-12-24T11:46:37;101038.88;;;11.09;53.06
54920;BME280;63804;53.120;8.764;2022-12-24T11:49:28;101043.44;;;11.18;52.73
54920;BME280;63804;53.120;8.764;2022-12-24T11:55:01;101055.66;;;10.87;53.28
54920;BME280;63804;53.120;8.764;2022-12-24T11:57:38;101060.22;;;10.83;53.51
54920;BME280;63804;53.120;8.764;2022-12-24T12:00:09;101053.88;;;10.91;53.49
54920;BME280;63804;53.120;8.764;2022-12-24T12:02:40;101061.00;;;10.83;53.39
54920;BME280;63804;53.120;8.764;2022-12-24T12:05:28;101058.94;;;10.80;53.67
54920;BME280;63804;53.120;8.764;2022-12-24T12:08:09;101062.69;;;10.76;53.55
54920;BME280;63804;53.120;8.764;2022-12-24T12:10:39;101074.31;;;10.85;53.34
54920;BME280;63804;53.120;8.764;2022-12-24T12:13:14;101062.81;;;10.79;53.08
54920;BME280;63804;53.120;8.764;2022-12-24T12:15:49;101076.13;;;10.81;53.70
54920;BME280;63804;53.120;8.764;2022-12-24T12:18:21;101077.97;;;10.89;53.24
54920;BME280;63804;53.120;8.764;2022-12-24T12:20:57;101079.34;;;10.95;53.27
54920;BME280;63804;53.120;8.764;2022-12-24T12:23:29;101088.69;;;10.94;53.29
54920;BME280;63804;53.120;8.764;2022-12-24T12:29:03;101097.56;;;10.91;53.30
54920;BME280;63804;53.120;8.764;2022-12-24T12:31:40;101095.94;;;10.90;53.26
54920;BME280;63804;53.120;8.764;2022-12-24T12:34:17;101092.63;;;10.84;53.55
54920;BME280;63804;53.120;8.764;2022-12-24T12:36:50;101093.63;;;10.80;53.66
54920;BME280;63804;53.120;8.764;2022-12-24T12:39:17;101096.63;;;10.87;53.48
54920;BME280;63804;53.120;8.764;2022-12-24T12:41:53;101102.69;;;10.92;53.90
54920;BME280;63804;53.120;8.764;2022-12-24T12:50:13;101101.41;;;10.90;53.92
54920;BME280;63804;53.120;8.764;2022-12-24T12:58:30;101099.56;;;10.82;54.48
54920;BME280;63804;53.120;8.764;2022-12-24T13:01:02;101106.09;;;10.89;54.28
54920;BME280;63804;53.120;8.764;2022-12-24T13:03:55;101109.16;;;10.88;54.25
54920;BME280;63804;53.120;8.764;2022-12-24T13:09:05;101112.34;;;10.90;54.17
54920;BME280;63804;53.120;8.764;2022-12-24T13:17:08;101116.00;;;10.94;53.81
54920;BME280;63804;53.120;8.764;2022-12-24T13:22:50;101116.06;;;10.85;53.69
54920;BME280;63804;53.120;8.764;2022-12-24T13:25:26;101119.94;;;10.84;53.58
54920;BME280;63804;53.120;8.764;2022-12-24T13:27:53;101122.81;;;10.88;53.63
54920;BME280;63804;53.120;8.764;2022-12-24T13:32:57;101122.59;;;10.93;53.51
54920;BME280;63804;53.120;8.764;2022-12-24T13:37:49;101124.19;;;10.94;53.28
54920;BME280;63804;53.120;8.764;2022-12-24T13:40:25;101123.91;;;10.87;53.35
54920;BME280;63804;53.120;8.764;2022-12-24T13:48:01;101142.78;;;10.80;53.62
54920;BME280;63804;53.120;8.764;2022-12-24T13:55:51;101152.84;;;10.88;53.26
54920;BME280;63804;53.120;8.764;2022-12-24T13:58:18;101163.09;;;10.91;52.99
54920;BME280;63804;53.120;8.764;2022-12-24T14:00:54;101155.59;;;11.00;53.20
54920;BME280;63804;53.120;8.764;2022-12-24T14:05:59;101155.88;;;11.07;52.88
54920;BME280;63804;53.120;8.764;2022-12-24T14:08:30;101159.38;;;10.96;53.11
54920;BME280;63804;53.120;8.764;2022-12-24T14:11:16;101159.75;;;10.85;53.07
54920;BME280;63804;53.120;8.764;2022-12-24T14:16:12;101176.00;;;10.82;53.12
54920;BME280;63804;53.120;8.764;2022-12-24T14:18:47;101168.97;;;10.81;53.45
54920;BME280;63804;53.120;8.764;2022-12-24T14:21:17;101166.03;;;10.86;53.34
54920;BME280;63804;53.120;8.764;2022-12-24T14:23:52;101174.69;;;10.88;52.92
54920;BME280;63804;53.120;8.764;2022-12-24T14:26:22;101174.44;;;10.81;53.01
54920;BME280;63804;53.120;8.764;2022-12-24T14:28:54;101177.06;;;10.68;53.01
54920;BME280;63804;53.120;8.764;2022-12-24T14:31:20;101180.41;;;10.74;52.86
54920;BME280;63804;53.120;8.764;2022-12-24T14:33:46;101192.59;;;10.77;52.79
54920;BME280;63804;53.120;8.764;2022-12-24T14:36:14;101193.59;;;10.72;52.54
54920;BME280;63804;53.120;8.764;2022-12-24T14:38:43;101195.03;;;10.69;52.79
54920;BME280;63804;53.120;8.764;2022-12-24T14:41:34;101203.69;;;10.71;52.14
54920;BME280;63804;53.120;8.764;2022-12-24T14:46:42;101225.72;;;10.66;52.53
54920;BME280;63804;53.120;8.764;2022-12-24T14:49:36;101221.25;;;10.62;52.55